Locarno Airport LSZL

Flugplatz Daten

Name: Locarno Airport

Ident: LSZL

Lat: 46,16080093

Long: 8,878609657

Platzhöhe: 650 ft

IataCode: ZJI

City:

Metar

2021/08/02 09:20
LSZL 020920Z VRB02KT 9999 SCT097 20/12 Q1014 RMK BLU+

Taf

Gewünschte Webcam nicht vorhanden? Dann fügen Sie eine hinzu. Sie wird dann so schnell wie möglich freigeschaltet
Url: Title: